createdAt,value
2018-04-17T00:00:22.984Z,15.07
2018-04-17T00:02:51.395Z,15.00
2018-04-17T00:05:20.492Z,15.12
2018-04-17T00:07:49.111Z,15.06
2018-04-17T00:10:17.637Z,15.13
2018-04-17T00:12:45.999Z,14.99
2018-04-17T00:15:14.419Z,15.10
2018-04-17T00:17:42.917Z,15.04
2018-04-17T00:20:11.251Z,14.95
2018-04-17T00:22:39.859Z,14.96
2018-04-17T00:25:08.992Z,14.82
2018-04-17T00:30:05.023Z,14.93
2018-04-17T00:35:01.168Z,14.81
2018-04-17T00:37:29.519Z,14.68
2018-04-17T00:39:58.707Z,14.57
2018-04-17T00:42:27.065Z,14.61
2018-04-17T00:44:55.427Z,14.54
2018-04-17T00:47:23.847Z,14.49
2018-04-17T00:49:53.158Z,14.41
2018-04-17T00:52:22.345Z,14.35
2018-04-17T00:54:51.543Z,14.29
2018-04-17T00:57:19.877Z,14.42
2018-04-17T00:59:49.950Z,14.04
2018-04-17T01:02:19.108Z,14.23
2018-04-17T01:04:47.423Z,14.13
2018-04-17T01:07:15.750Z,14.12
2018-04-17T01:09:44.131Z,14.14
2018-04-17T01:12:12.626Z,14.07
2018-04-17T01:14:41.129Z,14.11
2018-04-17T01:17:09.783Z,13.98
2018-04-17T01:19:38.138Z,13.93
2018-04-17T01:22:06.509Z,13.81
2018-04-17T01:24:36.596Z,13.83
2018-04-17T01:27:04.968Z,13.81
2018-04-17T01:29:34.335Z,13.76
2018-04-17T01:32:03.427Z,13.67
2018-04-17T01:34:33.132Z,13.62
2018-04-17T01:37:01.446Z,13.51
2018-04-17T01:39:29.871Z,13.45
2018-04-17T01:41:58.187Z,13.45
2018-04-17T01:44:27.286Z,13.40
2018-04-17T01:46:56.382Z,13.29
2018-04-17T01:49:25.531Z,13.33
2018-04-17T01:51:53.852Z,13.27
2018-04-17T01:54:23.008Z,13.21
2018-04-17T01:56:51.327Z,13.14
2018-04-17T01:59:20.415Z,13.20
2018-04-17T02:01:49.634Z,13.11
2018-04-17T02:04:18.739Z,12.97
2018-04-17T02:06:47.088Z,12.93
2018-04-17T02:09:15.478Z,12.74
2018-04-17T02:11:43.849Z,12.89
2018-04-17T02:14:12.931Z,12.89
2018-04-17T02:16:41.324Z,12.77
2018-04-17T02:19:09.677Z,12.76
2018-04-17T02:21:38.051Z,12.72
2018-04-17T02:24:06.784Z,12.72
2018-04-17T02:26:35.861Z,12.42
2018-04-17T02:29:04.168Z,12.31
2018-04-17T02:31:33.263Z,12.22
2018-04-17T02:34:02.352Z,12.15
2018-04-17T02:36:30.693Z,12.06
2018-04-17T02:38:59.031Z,12.09
2018-04-17T02:41:27.410Z,12.10
2018-04-17T02:43:55.728Z,12.10
2018-04-17T02:46:24.339Z,11.78
2018-04-17T02:48:52.674Z,11.73
2018-04-17T02:51:21.012Z,11.86
2018-04-17T02:53:50.123Z,11.84
2018-04-17T02:56:18.483Z,11.76
2018-04-17T02:58:46.866Z,11.79
2018-04-17T03:01:15.273Z,11.73
2018-04-17T03:03:43.615Z,11.78
2018-04-17T03:06:12.692Z,11.78
2018-04-17T03:08:41.283Z,11.83
2018-04-17T03:11:09.619Z,11.74
2018-04-17T03:13:37.955Z,11.65
2018-04-17T03:16:07.069Z,11.58
2018-04-17T03:18:35.369Z,11.70
2018-04-17T03:21:03.695Z,11.72
2018-04-17T03:23:32.076Z,11.54
2018-04-17T03:26:00.420Z,11.46
2018-04-17T03:28:28.735Z,11.50
2018-04-17T03:30:57.145Z,11.52
2018-04-17T03:33:25.483Z,11.46
2018-04-17T03:35:53.834Z,11.42
2018-04-17T03:38:22.207Z,11.34
2018-04-17T03:40:50.539Z,11.41
2018-04-17T03:43:18.862Z,11.38
2018-04-17T03:45:47.192Z,11.13
2018-04-17T03:48:15.523Z,10.93
2018-04-17T03:50:43.852Z,11.00
2018-04-17T03:53:13.324Z,10.99
2018-04-17T03:55:41.644Z,11.05
2018-04-17T03:58:09.962Z,10.93
2018-04-17T04:00:38.327Z,11.11
2018-04-17T04:03:06.652Z,11.03
2018-04-17T04:05:34.976Z,10.93
2018-04-17T04:08:03.350Z,10.82
2018-04-17T04:10:31.662Z,10.78
2018-04-17T04:12:59.975Z,10.99
2018-04-17T04:15:28.361Z,10.94
2018-04-17T04:18:14.255Z,10.82
2018-04-17T04:21:01.098Z,10.88
2018-04-17T04:23:46.900Z,10.92
2018-04-17T04:26:31.802Z,10.90
2018-04-17T04:29:00.146Z,10.82
2018-04-17T04:31:28.455Z,10.57
2018-04-17T04:33:57.289Z,10.59
2018-04-17T04:36:25.638Z,10.51
2018-04-17T04:38:54.001Z,10.49
2018-04-17T04:41:22.496Z,10.70
2018-04-17T04:43:51.034Z,10.73
2018-04-17T04:46:19.352Z,10.66
2018-04-17T04:48:47.715Z,10.51
2018-04-17T04:51:16.214Z,10.60
2018-04-17T04:53:45.295Z,10.49
2018-04-17T04:56:14.038Z,10.56
2018-04-17T04:58:42.947Z,10.46
2018-04-17T05:01:11.270Z,10.64
2018-04-17T05:03:39.600Z,10.74
2018-04-17T05:06:08.698Z,10.82
2018-04-17T05:08:37.015Z,10.91
2018-04-17T05:11:05.393Z,11.01
2018-04-17T05:13:33.710Z,10.99
2018-04-17T05:16:02.802Z,11.08
2018-04-17T05:18:32.060Z,10.94
2018-04-17T05:21:00.388Z,11.23
2018-04-17T05:23:28.703Z,11.28
2018-04-17T05:25:57.230Z,11.42
2018-04-17T05:28:25.563Z,11.48
2018-04-17T05:30:53.929Z,11.50
2018-04-17T05:33:22.303Z,11.47
2018-04-17T05:35:50.591Z,11.49
2018-04-17T05:38:18.923Z,11.59
2018-04-17T05:40:48.953Z,11.61
2018-04-17T05:43:17.446Z,11.68
2018-04-17T05:45:45.772Z,11.84
2018-04-17T05:48:14.251Z,11.93
2018-04-17T05:50:42.576Z,12.05
2018-04-17T05:53:11.676Z,12.07
2018-04-17T05:55:40.974Z,12.25
2018-04-17T05:58:10.085Z,12.47
2018-04-17T06:00:38.447Z,12.58
2018-04-17T06:03:07.638Z,12.74
2018-04-17T06:05:35.948Z,12.85
2018-04-17T06:08:04.324Z,12.90
2018-04-17T06:10:32.686Z,13.13
2018-04-17T06:13:01.774Z,13.19
2018-04-17T06:15:30.129Z,13.32
2018-04-17T06:17:58.590Z,13.62
2018-04-17T06:20:26.955Z,13.74
2018-04-17T06:22:55.279Z,13.77
2018-04-17T06:25:24.078Z,13.94
2018-04-17T06:27:53.205Z,14.17
2018-04-17T06:30:21.558Z,14.26
2018-04-17T06:32:49.915Z,14.27
2018-04-17T06:35:18.254Z,14.38
2018-04-17T06:37:46.584Z,14.62
2018-04-17T06:40:15.787Z,14.70
2018-04-17T06:42:44.162Z,14.87
2018-04-17T06:45:12.495Z,14.99
2018-04-17T06:47:41.072Z,15.02
2018-04-17T06:50:10.149Z,14.95
2018-04-17T06:52:38.526Z,14.95
2018-04-17T06:55:07.644Z,15.26
2018-04-17T06:57:35.994Z,15.38
2018-04-17T07:00:04.485Z,15.64
2018-04-17T07:02:32.881Z,15.53
2018-04-17T07:05:01.235Z,15.26
2018-04-17T07:07:29.532Z,15.48
2018-04-17T07:09:57.998Z,15.63
2018-04-17T07:12:27.106Z,15.69
2018-04-17T07:14:55.447Z,15.66
2018-04-17T07:17:23.827Z,16.21
2018-04-17T07:19:52.132Z,16.36
2018-04-17T07:22:20.503Z,16.73
2018-04-17T07:24:49.660Z,16.50
2018-04-17T07:27:18.131Z,16.58
2018-04-17T07:29:46.459Z,16.48
2018-04-17T07:32:15.157Z,16.75
2018-04-17T07:34:44.291Z,17.05
2018-04-17T07:37:12.586Z,17.25
2018-04-17T07:39:40.969Z,17.58
2018-04-17T07:42:09.435Z,17.82
2018-04-17T07:44:37.830Z,17.59
2018-04-17T07:47:29.133Z,17.47
2018-04-17T07:49:57.435Z,17.80
2018-04-17T07:52:25.834Z,17.41
2018-04-17T07:54:54.952Z,18.08
2018-04-17T07:57:24.068Z,18.74
2018-04-17T07:59:52.383Z,18.69
2018-04-17T08:02:20.726Z,18.85
2018-04-17T08:04:49.032Z,18.83
2018-04-17T08:07:17.337Z,19.22
2018-04-17T08:09:46.126Z,19.61
2018-04-17T08:12:14.524Z,19.87
2018-04-17T08:14:43.023Z,19.42
2018-04-17T08:17:11.375Z,19.71
2018-04-17T08:19:40.458Z,20.06
2018-04-17T08:22:08.812Z,19.31
2018-04-17T08:24:37.171Z,19.44
2018-04-17T08:27:05.496Z,20.29
2018-04-17T08:29:34.029Z,20.87
2018-04-17T08:32:02.582Z,20.99
2018-04-17T08:34:31.743Z,21.20
2018-04-17T08:37:00.120Z,21.08
2018-04-17T08:39:28.440Z,21.46
2018-04-17T08:41:57.532Z,21.46
2018-04-17T08:44:26.616Z,20.77
2018-04-17T08:46:54.990Z,20.58
2018-04-17T08:49:23.292Z,21.39
2018-04-17T08:51:51.606Z,21.95
2018-04-17T08:54:20.447Z,22.02
2018-04-17T08:56:49.577Z,22.18
2018-04-17T08:59:17.935Z,22.35
2018-04-17T09:01:47.092Z,22.43
2018-04-17T09:04:15.411Z,22.76
2018-04-17T09:06:44.528Z,22.66
2018-04-17T09:09:12.884Z,23.02
2018-04-17T09:11:42.061Z,23.41
2018-04-17T09:14:10.351Z,23.61
2018-04-17T09:16:39.251Z,24.07
2018-04-17T09:19:08.360Z,23.90
2018-04-17T09:21:36.672Z,23.93
2018-04-17T09:24:05.152Z,23.50
2018-04-17T09:26:33.508Z,23.19
2018-04-17T09:29:01.872Z,23.71
2018-04-17T09:31:30.211Z,23.85
2018-04-17T09:33:58.559Z,24.31
2018-04-17T09:36:26.899Z,24.06
2018-04-17T09:38:55.446Z,24.82
2018-04-17T09:41:23.810Z,25.06
2018-04-17T09:43:52.122Z,25.56
2018-04-17T09:46:20.484Z,25.55
2018-04-17T09:48:48.832Z,24.69
2018-04-17T09:51:17.171Z,25.02
2018-04-17T09:53:46.303Z,25.34
2018-04-17T09:56:14.638Z,26.04
2018-04-17T09:58:42.973Z,25.63
2018-04-17T10:01:17.029Z,25.36
2018-04-17T10:03:45.432Z,25.32
2018-04-17T10:06:14.507Z,25.21
2018-04-17T10:08:43.718Z,26.42
2018-04-17T10:11:12.011Z,26.93
2018-04-17T10:13:40.410Z,26.76
2018-04-17T10:16:08.780Z,26.67
2018-04-17T10:18:37.165Z,27.44
2018-04-17T10:21:05.540Z,27.56
2018-04-17T10:23:34.367Z,27.87
2018-04-17T10:26:02.725Z,27.45
2018-04-17T10:28:31.036Z,27.31
2018-04-17T10:30:59.405Z,28.32
2018-04-17T10:33:27.746Z,27.23
2018-04-17T10:35:56.080Z,26.51
2018-04-17T10:38:24.536Z,27.76
2018-04-17T10:40:52.936Z,27.87
2018-04-17T10:43:21.300Z,28.25
2018-04-17T10:45:49.820Z,28.47
2018-04-17T10:48:18.912Z,28.18
2018-04-17T10:50:47.223Z,28.01
2018-04-17T10:53:15.599Z,27.48
2018-04-17T10:55:43.935Z,27.67
2018-04-17T10:58:12.306Z,28.10
2018-04-17T11:00:40.712Z,27.24
2018-04-17T11:03:09.805Z,26.33
2018-04-17T11:05:38.927Z,26.34
2018-04-17T11:08:07.713Z,26.52
2018-04-17T11:10:36.060Z,26.51
2018-04-17T11:13:04.432Z,25.92
2018-04-17T11:15:32.814Z,25.34
2018-04-17T11:18:01.120Z,25.72
2018-04-17T11:20:30.232Z,26.87
2018-04-17T11:22:58.587Z,26.84
2018-04-17T11:25:27.664Z,26.32
2018-04-17T11:27:56.027Z,26.00
2018-04-17T11:30:24.691Z,27.03
2018-04-17T11:32:53.012Z,27.55
2018-04-17T11:35:21.357Z,27.26
2018-04-17T11:37:49.733Z,27.29
2018-04-17T11:40:18.063Z,27.83
2018-04-17T11:42:47.296Z,28.02
2018-04-17T11:45:15.611Z,27.99
2018-04-17T11:47:44.012Z,27.93
2018-04-17T11:50:12.389Z,28.23
2018-04-17T11:52:40.894Z,28.48
2018-04-17T11:55:10.140Z,28.76
2018-04-17T11:57:38.477Z,28.03
2018-04-17T12:00:07.594Z,28.37
2018-04-17T12:02:35.922Z,28.62
2018-04-17T12:05:04.257Z,27.85
2018-04-17T12:07:32.699Z,26.72
2018-04-17T12:10:01.014Z,26.12
2018-04-17T12:12:29.345Z,26.60
2018-04-17T12:14:58.528Z,27.16
2018-04-17T12:17:26.895Z,27.35
2018-04-17T12:19:55.209Z,27.68
2018-04-17T12:22:24.345Z,27.28
2018-04-17T12:24:52.719Z,27.75
2018-04-17T12:27:21.020Z,27.11
2018-04-17T12:29:49.371Z,27.21
2018-04-17T12:32:18.056Z,27.88
2018-04-17T12:34:46.471Z,28.22
2018-04-17T12:37:15.106Z,28.58
2018-04-17T12:39:44.187Z,28.48
2018-04-17T12:42:12.535Z,28.52
2018-04-17T12:44:40.883Z,28.31
2018-04-17T12:47:09.219Z,28.75
2018-04-17T12:49:37.530Z,28.74
2018-04-17T12:52:05.903Z,28.21
2018-04-17T12:54:34.320Z,28.60
2018-04-17T12:57:03.390Z,28.61
2018-04-17T12:59:32.237Z,28.97
2018-04-17T13:02:00.592Z,29.31
2018-04-17T13:04:28.908Z,29.58
2018-04-17T13:06:58.024Z,29.58
2018-04-17T13:09:26.345Z,28.92
2018-04-17T13:11:54.679Z,29.14
2018-04-17T13:14:23.806Z,29.36
2018-04-17T13:16:52.134Z,29.25
2018-04-17T13:19:21.273Z,28.86
2018-04-17T13:21:49.874Z,28.78
2018-04-17T13:24:22.044Z,28.94
2018-04-17T13:26:50.356Z,29.02
2018-04-17T13:29:18.728Z,28.92
2018-04-17T13:31:47.043Z,28.84
2018-04-17T13:34:15.651Z,28.85
2018-04-17T13:36:44.013Z,28.62
2018-04-17T13:39:12.342Z,28.53
2018-04-17T13:41:40.643Z,28.76
2018-04-17T13:44:09.966Z,28.12
2018-04-17T13:46:38.320Z,27.98
2018-04-17T13:49:07.413Z,27.06
2018-04-17T13:51:35.781Z,26.00
2018-04-17T13:54:04.136Z,26.34
2018-04-17T13:56:32.433Z,26.75
2018-04-17T13:59:00.803Z,26.98
2018-04-17T14:01:29.159Z,27.25
2018-04-17T14:03:57.513Z,27.14
2018-04-17T14:06:25.993Z,27.26
2018-04-17T14:08:54.317Z,26.96
2018-04-17T14:11:22.648Z,26.91
2018-04-17T14:13:51.763Z,27.42
2018-04-17T14:16:20.064Z,27.44
2018-04-17T14:18:48.396Z,27.63
2018-04-17T14:21:16.742Z,27.61
2018-04-17T14:23:45.091Z,27.56
2018-04-17T14:26:13.398Z,27.59
2018-04-17T14:28:42.016Z,27.77
2018-04-17T14:31:11.115Z,27.42
2018-04-17T14:33:40.237Z,27.57
2018-04-17T14:36:08.641Z,27.62
2018-04-17T14:38:36.962Z,26.56
2018-04-17T14:41:06.057Z,26.43
2018-04-17T14:43:34.480Z,26.01
2018-04-17T14:46:02.843Z,26.49
2018-04-17T14:48:31.222Z,26.49
2018-04-17T14:50:59.984Z,26.61
2018-04-17T14:53:29.048Z,26.79
2018-04-17T14:55:57.354Z,26.21
2018-04-17T14:58:25.811Z,26.22
2018-04-17T15:00:54.158Z,26.32
2018-04-17T15:03:22.544Z,26.36
2018-04-17T15:05:51.640Z,26.28
2018-04-17T15:08:19.987Z,26.54
2018-04-17T15:10:48.340Z,26.44
2018-04-17T15:13:17.029Z,26.15
2018-04-17T15:15:45.533Z,25.94
2018-04-17T15:18:14.632Z,26.01
2018-04-17T15:20:43.791Z,26.28
2018-04-17T15:23:12.109Z,26.39
2018-04-17T15:25:41.204Z,26.05
2018-04-17T15:28:09.562Z,26.17
2018-04-17T15:30:38.709Z,25.95
2018-04-17T15:33:07.074Z,26.13
2018-04-17T15:35:35.470Z,25.77
2018-04-17T15:38:03.815Z,25.72
2018-04-17T15:40:32.912Z,24.99
2018-04-17T15:43:02.021Z,25.30
2018-04-17T15:45:30.344Z,25.34
2018-04-17T15:47:58.657Z,25.43
2018-04-17T15:50:27.001Z,25.66
2018-04-17T15:52:55.325Z,25.36
2018-04-17T15:55:24.400Z,25.50
2018-04-17T15:57:52.829Z,24.96
2018-04-17T16:00:21.153Z,24.76
2018-04-17T16:02:49.479Z,24.57
2018-04-17T16:05:17.867Z,24.86
2018-04-17T16:07:46.205Z,25.05
2018-04-17T16:10:15.295Z,25.03
2018-04-17T16:12:43.904Z,24.75
2018-04-17T16:15:12.246Z,24.69
2018-04-17T16:17:40.624Z,24.85
2018-04-17T16:20:09.228Z,24.84
2018-04-17T16:22:38.344Z,24.64
2018-04-17T16:25:06.736Z,24.61
2018-04-17T16:27:35.121Z,24.55
2018-04-17T16:30:03.448Z,24.28
2018-04-17T16:32:32.579Z,24.16
2018-04-17T16:35:00.946Z,24.20
2018-04-17T16:37:30.127Z,24.17
2018-04-17T16:39:58.450Z,24.42
2018-04-17T16:42:27.156Z,24.32
2018-04-17T16:44:55.504Z,24.43
2018-04-17T16:47:23.828Z,24.42
2018-04-17T16:49:52.180Z,24.40
2018-04-17T16:52:20.506Z,24.49
2018-04-17T16:54:48.818Z,24.51
2018-04-17T16:57:17.159Z,24.38
2018-04-17T16:59:45.498Z,24.15
2018-04-17T17:02:13.858Z,24.13
2018-04-17T17:04:42.495Z,24.03
2018-04-17T17:07:10.819Z,24.18
2018-04-17T17:09:39.907Z,24.08
2018-04-17T17:12:09.041Z,24.14
2018-04-17T17:14:37.370Z,24.19
2018-04-17T17:17:06.476Z,23.99
2018-04-17T17:19:34.851Z,23.95
2018-04-17T17:22:03.950Z,24.02
2018-04-17T17:24:33.059Z,23.96
2018-04-17T17:27:01.838Z,23.91
2018-04-17T17:29:30.184Z,24.08
2018-04-17T17:31:58.509Z,23.93
2018-04-17T17:34:26.898Z,23.87
2018-04-17T17:36:55.264Z,23.73
2018-04-17T17:39:23.807Z,23.94
2018-04-17T17:41:52.185Z,23.98
2018-04-17T17:44:20.530Z,23.87
2018-04-17T17:46:48.866Z,23.65
2018-04-17T17:49:18.308Z,23.62
2018-04-17T17:51:46.648Z,23.57
2018-04-17T17:54:15.160Z,23.53
2018-04-17T17:56:43.714Z,23.23
2018-04-17T17:59:12.845Z,23.02
2018-04-17T18:01:41.268Z,22.92
2018-04-17T18:04:09.678Z,22.62
2018-04-17T18:06:38.255Z,22.64
2018-04-17T18:09:07.324Z,22.70
2018-04-17T18:11:35.929Z,22.43
2018-04-17T18:14:05.772Z,22.38
2018-04-17T18:16:34.163Z,22.22
2018-04-17T18:19:02.589Z,22.14
2018-04-17T18:21:31.138Z,22.17
2018-04-17T18:23:59.449Z,21.99
2018-04-17T18:26:27.791Z,21.98
2018-04-17T18:28:56.119Z,21.85
2018-04-17T18:31:24.634Z,21.78
2018-04-17T18:33:53.161Z,21.79
2018-04-17T18:36:21.486Z,21.66
2018-04-17T18:38:51.413Z,21.65
2018-04-17T18:41:19.840Z,21.53
2018-04-17T18:43:48.862Z,21.35
2018-04-17T18:46:17.247Z,21.25
2018-04-17T18:48:46.478Z,21.21
2018-04-17T18:51:14.858Z,21.12
2018-04-17T18:53:43.260Z,21.15
2018-04-17T18:56:11.729Z,21.11
2018-04-17T18:58:40.079Z,20.94
2018-04-17T19:01:10.089Z,21.03
2018-04-17T19:03:38.863Z,20.95
2018-04-17T19:06:07.990Z,20.75
2018-04-17T19:08:37.070Z,20.75
2018-04-17T19:11:06.271Z,20.70
2018-04-17T19:13:34.619Z,20.63
2018-04-17T19:16:02.961Z,20.66
2018-04-17T19:18:31.737Z,20.49
2018-04-17T19:21:00.263Z,20.50
2018-04-17T19:23:28.647Z,20.66
2018-04-17T19:25:57.006Z,20.71
2018-04-17T19:28:25.634Z,20.61
2018-04-17T19:30:54.196Z,20.54
2018-04-17T19:33:22.612Z,20.48
2018-04-17T19:35:50.962Z,20.41
2018-04-17T19:38:20.486Z,20.22
2018-04-17T19:40:50.832Z,20.03
2018-04-17T19:43:19.178Z,19.96
2018-04-17T19:45:48.312Z,19.96
2018-04-17T19:48:16.922Z,20.01
2018-04-17T19:50:46.760Z,19.96
2018-04-17T19:53:16.400Z,19.90
2018-04-17T19:55:44.914Z,19.83
2018-04-17T19:58:13.303Z,19.79
2018-04-17T20:00:41.646Z,19.45
2018-04-17T20:03:10.338Z,19.42
2018-04-17T20:05:39.464Z,19.60
2018-04-17T20:08:07.800Z,19.60
2018-04-17T20:10:36.930Z,19.43
2018-04-17T20:13:05.293Z,19.23
2018-04-17T20:15:33.869Z,19.01
2018-04-17T20:18:03.018Z,18.84
2018-04-17T20:20:31.440Z,18.82
2018-04-17T20:23:00.526Z,18.95
2018-04-17T20:25:29.936Z,19.04
2018-04-17T20:27:58.281Z,18.87
2018-04-17T20:30:26.663Z,18.82
2018-04-17T20:32:55.013Z,18.83
2018-04-17T20:35:23.363Z,18.81
2018-04-17T20:37:52.746Z,18.74
2018-04-17T20:40:21.124Z,18.49
2018-04-17T20:42:49.971Z,18.61
2018-04-17T20:45:18.306Z,18.64
2018-04-17T20:47:47.938Z,18.78
2018-04-17T20:50:16.332Z,18.54
2018-04-17T20:52:44.715Z,18.37
2018-04-17T20:55:13.079Z,18.35
2018-04-17T20:57:41.454Z,18.38
2018-04-17T21:00:09.813Z,18.34
2018-04-17T21:02:39.054Z,18.21
2018-04-17T21:05:07.509Z,18.13
2018-04-17T21:07:36.071Z,18.01
2018-04-17T21:10:04.692Z,17.82
2018-04-17T21:12:33.235Z,17.88
2018-04-17T21:15:01.563Z,17.80
2018-04-17T21:17:29.941Z,17.69
2018-04-17T21:19:58.303Z,17.77
2018-04-17T21:22:26.647Z,17.64
2018-04-17T21:24:56.617Z,17.60
2018-04-17T21:27:25.039Z,17.36
2018-04-17T21:29:53.402Z,17.28
2018-04-17T21:32:22.101Z,17.33
2018-04-17T21:34:50.425Z,17.17
2018-04-17T21:37:18.959Z,17.11
2018-04-17T21:39:47.334Z,17.05
2018-04-17T21:42:15.652Z,16.68
2018-04-17T21:44:45.271Z,16.76
2018-04-17T21:47:13.747Z,16.66
2018-04-17T21:49:42.843Z,16.74
2018-04-17T21:52:11.197Z,16.76
2018-04-17T21:54:40.538Z,16.71
2018-04-17T21:57:08.848Z,16.71
2018-04-17T21:59:37.177Z,16.51
2018-04-17T22:02:06.357Z,16.28
2018-04-17T22:04:35.447Z,16.27
2018-04-17T22:07:03.747Z,16.37
2018-04-17T22:09:32.860Z,16.48
2018-04-17T22:12:01.192Z,16.44
2018-04-17T22:14:29.515Z,16.50
2018-04-17T22:16:58.116Z,16.50
2018-04-17T22:19:26.607Z,16.25
2018-04-17T22:21:55.107Z,16.20
2018-04-17T22:24:23.478Z,16.10
2018-04-17T22:26:51.942Z,16.20
2018-04-17T22:29:20.304Z,16.23
2018-04-17T22:31:48.729Z,16.26
2018-04-17T22:34:17.048Z,16.20
2018-04-17T22:36:46.240Z,16.23
2018-04-17T22:39:14.671Z,16.13
2018-04-17T22:41:42.996Z,16.14
2018-04-17T22:44:11.332Z,16.08
2018-04-17T22:46:39.723Z,15.93
2018-04-17T22:49:08.081Z,15.78
2018-04-17T22:51:36.412Z,15.50
2018-04-17T22:54:04.828Z,15.63
2018-04-17T22:56:33.178Z,15.76
2018-04-17T22:59:02.280Z,15.79
2018-04-17T23:01:31.863Z,15.71
2018-04-17T23:04:00.357Z,15.51
2018-04-17T23:06:29.048Z,15.51
2018-04-17T23:08:57.569Z,15.60
2018-04-17T23:11:25.883Z,15.62
2018-04-17T23:13:54.183Z,15.65
2018-04-17T23:16:23.448Z,15.76
2018-04-17T23:18:51.786Z,15.53
2018-04-17T23:21:20.375Z,15.51
2018-04-17T23:23:49.078Z,15.49
2018-04-17T23:26:17.392Z,15.64
2018-04-17T23:28:46.545Z,15.59
2018-04-17T23:31:14.960Z,15.35
2018-04-17T23:33:43.582Z,15.25
2018-04-17T23:36:12.670Z,15.29
2018-04-17T23:38:41.150Z,15.47
2018-04-17T23:41:09.502Z,15.33
2018-04-17T23:43:37.851Z,15.12
2018-04-17T23:46:06.390Z,15.14
2018-04-17T23:48:34.737Z,15.28
2018-04-17T23:51:03.382Z,15.49
2018-04-17T23:53:31.895Z,15.49
2018-04-17T23:56:00.353Z,15.32
2018-04-17T23:58:28.833Z,15.21
